Time;durP1;ratioP1;P1;durP2;ratioP2;P2;SDS_P1;SDS_P2;PMS_P1;PMS_P2;Temp;Humidity;BMP_temperature;BMP_pressure;BME280_temperature;BME280_humidity;BME280_pressure;Samples;Min_cycle;Max_cycle;Signal;HPM_P1;HPM_P2
2020/12/27 00:00:49;;;;;;;6.60;5.60;;;5.70;99.90;;;;;;5034205;28;20197;-87
2020/12/27 00:03:20;;;;;;;5.85;5.35;;;5.70;99.90;;;;;;5042163;28;20196;-84
2020/12/27 00:05:47;;;;;;;6.38;5.75;;;5.80;99.90;;;;;;5039609;28;20201;-85
2020/12/27 00:08:13;;;;;;;6.65;6.05;;;5.70;99.90;;;;;;5041215;28;20208;-83
2020/12/27 00:10:40;;;;;;;5.78;5.25;;;5.70;99.90;;;;;;5039764;28;20181;-85
2020/12/27 00:13:06;;;;;;;5.32;4.93;;;5.80;99.90;;;;;;5042583;28;20186;-87
2020/12/27 00:15:34;;;;;;;5.63;5.15;;;5.80;99.90;;;;;;5045791;28;20188;-86
2020/12/27 00:18:00;;;;;;;5.65;4.85;;;5.80;99.90;;;;;;5038493;28;20220;-85
2020/12/27 00:20:28;;;;;;;5.68;4.93;;;5.80;99.90;;;;;;5044449;28;20214;-85
2020/12/27 00:22:54;;;;;;;4.78;4.40;;;5.80;99.90;;;;;;5034821;28;20205;-85
2020/12/27 00:25:21;;;;;;;5.55;5.05;;;5.70;99.90;;;;;;5038607;28;20209;-85
2020/12/27 00:27:47;;;;;;;6.00;4.70;;;5.70;99.90;;;;;;5036558;28;20265;-84
2020/12/27 00:30:14;;;;;;;4.70;4.30;;;5.70;99.90;;;;;;5046092;28;20204;-85
2020/12/27 00:32:40;;;;;;;4.88;4.47;;;5.80;99.90;;;;;;5034517;28;20589;-84
2020/12/27 00:35:07;;;;;;;6.10;4.80;;;5.80;99.90;;;;;;5029422;28;20212;-84
2020/12/27 00:37:34;;;;;;;4.97;4.45;;;5.80;99.90;;;;;;5035908;28;20236;-83
2020/12/27 00:40:01;;;;;;;5.07;4.63;;;5.80;99.90;;;;;;5028351;28;20251;-84
2020/12/27 00:42:28;;;;;;;4.32;4.00;;;5.80;99.90;;;;;;5026448;28;20205;-84
2020/12/27 00:44:56;;;;;;;4.28;3.95;;;5.90;99.90;;;;;;5022972;28;20316;-85
2020/12/27 00:47:25;;;;;;;5.03;4.53;;;5.90;99.90;;;;;;5025997;28;20220;-84
2020/12/27 00:49:52;;;;;;;4.75;4.35;;;5.90;99.90;;;;;;5026891;28;20251;-84
2020/12/27 00:52:19;;;;;;;6.28;3.50;;;6.00;99.90;;;;;;5018728;28;20288;-84
2020/12/27 00:54:46;;;;;;;4.60;4.20;;;6.00;99.90;;;;;;5027741;28;20228;-84
2020/12/27 00:57:13;;;;;;;4.43;4.03;;;6.00;99.90;;;;;;5028179;28;20631;-84
2020/12/27 00:59:39;;;;;;;4.32;3.95;;;6.00;99.90;;;;;;5026424;28;20232;-84
2020/12/27 01:02:06;;;;;;;3.78;3.42;;;6.00;99.90;;;;;;5040988;23;20308;-82
2020/12/27 01:04:33;;;;;;;4.85;4.45;;;6.00;99.90;;;;;;4989715;28;20206;-82
2020/12/27 01:07:00;;;;;;;4.30;3.92;;;5.90;99.90;;;;;;4997219;28;20214;-83
2020/12/27 01:09:26;;;;;;;5.70;4.30;;;6.00;99.90;;;;;;4991785;28;20206;-83
2020/12/27 01:11:54;;;;;;;4.10;3.72;;;6.10;99.90;;;;;;4991215;28;20249;-82
2020/12/27 01:14:20;;;;;;;4.70;4.30;;;6.10;99.90;;;;;;4985572;28;20250;-82
2020/12/27 01:16:49;;;;;;;5.85;3.67;;;6.10;99.90;;;;;;4981560;28;20207;-83
2020/12/27 01:19:16;;;;;;;3.70;3.40;;;6.20;99.90;;;;;;4989869;28;20211;-83
2020/12/27 01:21:43;;;;;;;3.88;3.58;;;6.10;99.90;;;;;;4989657;28;20246;-83
2020/12/27 01:24:09;;;;;;;5.60;3.10;;;6.10;99.90;;;;;;4987867;28;20218;-82
2020/12/27 01:26:36;;;;;;;3.28;2.97;;;6.10;99.90;;;;;;4982316;28;20662;-82
2020/12/27 01:29:05;;;;;;;3.95;3.55;;;6.10;99.90;;;;;;4979681;28;20700;-82
2020/12/27 01:31:32;;;;;;;3.30;3.10;;;6.20;99.90;;;;;;4994000;28;20282;-81
2020/12/27 01:33:58;;;;;;;3.42;3.22;;;6.20;99.90;;;;;;4999698;28;20206;-81
2020/12/27 01:36:30;;;;;;;3.92;3.63;;;6.20;99.90;;;;;;4990001;28;20550;-82
2020/12/27 01:38:57;;;;;;;3.60;3.30;;;6.20;99.90;;;;;;4989900;28;20217;-83
2020/12/27 01:41:24;;;;;;;3.08;2.88;;;6.20;99.90;;;;;;4978873;28;20238;-83
2020/12/27 01:44:08;;;;;;;4.13;3.50;;;6.20;99.90;;;;;;4995437;28;20221;-81
2020/12/27 01:46:36;;;;;;;3.40;3.10;;;6.20;99.90;;;;;;4995840;28;20217;-82
2020/12/27 01:49:06;;;;;;;5.20;4.22;;;6.20;99.90;;;;;;5000034;28;20211;-83
2020/12/27 01:51:33;;;;;;;5.20;3.55;;;6.20;99.90;;;;;;4984082;28;20572;-83
2020/12/27 01:54:00;;;;;;;4.20;3.45;;;6.10;99.90;;;;;;4987652;28;20190;-82
2020/12/27 01:56:29;;;;;;;3.55;3.25;;;6.20;99.90;;;;;;4992619;28;20251;-82
2020/12/27 01:59:02;;;;;;;4.43;3.90;;;6.10;99.90;;;;;;5003503;28;20252;-81
2020/12/27 02:01:30;;;;;;;3.92;3.35;;;6.10;99.90;;;;;;4996667;28;20289;-82
2020/12/27 02:03:56;;;;;;;3.70;3.35;;;6.10;99.90;;;;;;4992005;28;20219;-82
2020/12/27 02:06:23;;;;;;;4.53;3.85;;;6.00;99.90;;;;;;4987113;28;20230;-83
2020/12/27 02:08:51;;;;;;;4.40;3.55;;;6.00;99.90;;;;;;4990455;28;20243;-81
2020/12/27 02:11:20;;;;;;;5.30;4.55;;;6.00;99.90;;;;;;4989026;28;20223;-82
2020/12/27 02:13:48;;;;;;;7.55;4.80;;;6.00;99.90;;;;;;4990268;28;20222;-82
2020/12/27 02:16:20;;;;;;;5.80;4.30;;;6.00;99.90;;;;;;4988522;28;20206;-82
2020/12/27 02:18:52;;;;;;;7.00;5.53;;;6.10;99.90;;;;;;4989908;28;20213;-83
2020/12/27 02:21:19;;;;;;;5.00;4.50;;;6.00;99.90;;;;;;4990753;28;20234;-82
2020/12/27 02:23:46;;;;;;;6.00;5.15;;;6.00;99.90;;;;;;4997574;28;20288;-83
2020/12/27 02:26:14;;;;;;;6.65;4.50;;;6.00;99.90;;;;;;5001458;28;20225;-82
2020/12/27 02:28:42;;;;;;;5.03;4.18;;;6.00;99.90;;;;;;4988418;28;20225;-83
2020/12/27 02:31:09;;;;;;;4.88;4.47;;;6.00;99.90;;;;;;4999625;28;20211;-82
2020/12/27 02:33:36;;;;;;;3.78;3.30;;;6.00;99.90;;;;;;4999659;28;20213;-82
2020/12/27 02:36:03;;;;;;;9.30;3.90;;;6.00;99.90;;;;;;4989266;28;20191;-83
2020/12/27 02:38:29;;;;;;;3.15;2.65;;;6.10;99.90;;;;;;4988695;28;20209;-82
2020/12/27 02:40:56;;;;;;;3.45;3.15;;;6.10;99.90;;;;;;4998386;28;20210;-81
2020/12/27 02:43:24;;;;;;;3.50;2.75;;;6.10;99.90;;;;;;4998150;28;20217;-82
2020/12/27 02:45:50;;;;;;;5.78;2.63;;;6.10;99.90;;;;;;4998635;28;20225;-83
2020/12/27 02:48:18;;;;;;;2.30;2.10;;;6.10;99.90;;;;;;4983013;28;20213;-82
2020/12/27 02:50:48;;;;;;;3.13;2.80;;;6.00;99.90;;;;;;4999165;28;20234;-82
2020/12/27 02:53:14;;;;;;;2.65;2.45;;;6.00;99.90;;;;;;4982763;28;20295;-82
2020/12/27 02:55:41;;;;;;;5.38;2.60;;;5.80;99.90;;;;;;4992423;28;20718;-83
2020/12/27 02:58:08;;;;;;;2.65;2.25;;;6.00;99.90;;;;;;5004769;28;20212;-83
2020/12/27 03:00:37;;;;;;;5.30;2.67;;;6.00;99.90;;;;;;4994702;28;20212;-84
2020/12/27 03:03:03;;;;;;;2.70;2.50;;;6.00;99.90;;;;;;4997221;28;20650;-83
2020/12/27 03:05:30;;;;;;;2.50;2.30;;;6.00;99.90;;;;;;4984325;28;20236;-80
2020/12/27 03:07:56;;;;;;;3.20;2.92;;;6.00;99.90;;;;;;4997694;28;20211;-82
2020/12/27 03:10:23;;;;;;;4.55;2.40;;;6.00;99.90;;;;;;5001350;28;20210;-81
2020/12/27 03:12:50;;;;;;;6.53;2.75;;;5.90;99.90;;;;;;4992496;28;20198;-81
2020/12/27 03:15:17;;;;;;;2.75;2.10;;;5.70;99.90;;;;;;4988036;28;20211;-81
2020/12/27 03:17:45;;;;;;;3.33;2.35;;;5.80;99.90;;;;;;4996038;28;20191;-81
2020/12/27 03:20:16;;;;;;;2.33;2.13;;;5.80;99.90;;;;;;4994490;28;20207;-82
2020/12/27 03:22:43;;;;;;;2.75;2.53;;;5.80;99.90;;;;;;4994722;28;20357;-83
2020/12/27 03:25:10;;;;;;;2.47;2.00;;;5.80;99.90;;;;;;4991539;28;20209;-81
2020/12/27 03:27:37;;;;;;;2.97;2.17;;;5.80;99.90;;;;;;4984764;28;20674;-81
2020/12/27 03:30:05;;;;;;;2.45;2.25;;;5.80;99.90;;;;;;4997676;28;20274;-82
2020/12/27 03:32:33;;;;;;;3.00;2.70;;;5.70;99.90;;;;;;4992537;28;20237;-81
2020/12/27 03:35:02;;;;;;;3.28;2.97;;;5.70;99.90;;;;;;4995296;28;20206;-80
2020/12/27 03:37:31;;;;;;;2.20;1.95;;;5.50;99.90;;;;;;4980587;28;20213;-80
2020/12/27 03:39:58;;;;;;;3.40;1.92;;;5.60;99.90;;;;;;4989081;28;20306;-81
2020/12/27 03:42:25;;;;;;;2.10;1.90;;;5.60;99.90;;;;;;4989113;28;20230;-81
2020/12/27 03:44:52;;;;;;;3.10;2.28;;;5.60;99.90;;;;;;4978250;28;20203;-81
2020/12/27 03:47:19;;;;;;;4.00;2.30;;;5.50;99.90;;;;;;4990996;28;20222;-82
2020/12/27 03:49:45;;;;;;;5.35;2.85;;;5.50;99.90;;;;;;4988288;28;20270;-81
2020/12/27 03:52:17;;;;;;;2.60;2.40;;;5.50;99.90;;;;;;4988554;28;20507;-80
2020/12/27 03:54:44;;;;;;;3.45;1.95;;;5.50;99.90;;;;;;4986950;28;20218;-81
2020/12/27 03:57:11;;;;;;;2.22;1.90;;;5.40;99.90;;;;;;4995567;28;20202;-81
2020/12/27 03:59:38;;;;;;;2.50;2.00;;;5.50;99.90;;;;;;4997691;28;20199;-80
2020/12/27 04:02:04;;;;;;;2.13;1.92;;;5.40;99.90;;;;;;4999602;28;20298;-82
2020/12/27 04:04:31;;;;;;;1.92;1.70;;;5.40;99.90;;;;;;5000563;28;20186;-81
2020/12/27 04:06:58;;;;;;;2.50;2.30;;;5.40;99.90;;;;;;4992492;28;20682;-80
2020/12/27 04:09:26;;;;;;;3.08;2.40;;;5.40;99.90;;;;;;4998242;28;20226;-80
2020/12/27 04:11:53;;;;;;;2.50;2.03;;;5.40;99.90;;;;;;4993804;28;20218;-81
2020/12/27 04:14:20;;;;;;;3.20;2.00;;;5.40;99.90;;;;;;4998298;28;20210;-82
2020/12/27 04:16:47;;;;;;;2.63;2.10;;;5.40;99.90;;;;;;4998161;28;20202;-82
2020/12/27 04:19:14;;;;;;;1.95;1.70;;;5.40;99.90;;;;;;4986995;28;20210;-81
2020/12/27 04:21:43;;;;;;;2.08;1.73;;;5.40;99.90;;;;;;4997345;28;20257;-80
2020/12/27 04:24:11;;;;;;;4.55;2.17;;;5.40;99.90;;;;;;4990236;28;20203;-81
2020/12/27 04:26:42;;;;;;;3.05;2.05;;;5.40;99.90;;;;;;4983590;28;20223;-81
2020/12/27 04:29:08;;;;;;;1.35;1.20;;;5.40;99.90;;;;;;4990891;28;20198;-82
2020/12/27 04:31:35;;;;;;;3.05;1.40;;;5.40;99.90;;;;;;4993827;28;20226;-81
2020/12/27 04:34:01;;;;;;;2.60;2.40;;;5.40;99.90;;;;;;4998106;28;20205;-82
2020/12/27 04:36:30;;;;;;;1.88;1.77;;;5.40;99.90;;;;;;4988562;28;20284;-82
2020/12/27 04:38:58;;;;;;;2.17;1.98;;;5.50;99.90;;;;;;4990341;28;20217;-82
2020/12/27 04:41:29;;;;;;;1.55;1.45;;;5.40;99.90;;;;;;4999353;28;20249;-82
2020/12/27 04:43:58;;;;;;;2.28;1.80;;;5.50;99.90;;;;;;4993721;28;20210;-81
2020/12/27 04:46:24;;;;;;;2.85;1.38;;;5.40;99.90;;;;;;4978559;28;20689;-81
2020/12/27 04:48:53;;;;;;;3.15;1.90;;;5.50;99.90;;;;;;4986377;28;20211;-81
2020/12/27 04:51:20;;;;;;;2.17;1.40;;;5.50;99.90;;;;;;4974525;28;20242;-81
2020/12/27 04:53:49;;;;;;;2.13;1.60;;;5.50;99.90;;;;;;4989405;28;20233;-81
2020/12/27 04:56:20;;;;;;;1.58;1.48;;;5.50;99.90;;;;;;4974750;28;20215;-80
2020/12/27 04:58:49;;;;;;;2.58;1.80;;;5.50;99.90;;;;;;4991574;28;20206;-80
2020/12/27 05:01:17;;;;;;;2.90;1.42;;;5.50;99.90;;;;;;4983346;28;20238;-81
2020/12/27 05:03:43;;;;;;;5.60;1.30;;;5.60;99.90;;;;;;4983018;28;20206;-81
2020/12/27 05:06:14;;;;;;;1.60;1.30;;;5.50;99.90;;;;;;4989796;28;20249;-82
2020/12/27 05:08:41;;;;;;;1.90;1.75;;;5.50;99.90;;;;;;4990183;28;20687;-82
2020/12/27 05:11:08;;;;;;;1.63;1.52;;;5.60;99.90;;;;;;4986664;28;20311;-81
2020/12/27 05:13:35;;;;;;;1.55;1.45;;;5.60;99.90;;;;;;5002351;28;20237;-82
2020/12/27 05:16:05;;;;;;;2.85;1.70;;;5.50;99.90;;;;;;4993847;28;20202;-82
2020/12/27 05:18:44;;;;;;;1.85;1.45;;;5.60;99.90;;;;;;4994674;28;20206;-80
2020/12/27 05:21:11;;;;;;;1.73;1.63;;;5.60;99.90;;;;;;4989588;28;20206;-81
2020/12/27 05:23:37;;;;;;;2.95;1.60;;;5.60;99.90;;;;;;5001601;28;20194;-81
2020/12/27 05:26:07;;;;;;;2.90;1.60;;;5.60;99.90;;;;;;4997176;28;20238;-81
2020/12/27 05:28:34;;;;;;;1.63;1.52;;;5.60;99.90;;;;;;4992317;28;20221;-80
2020/12/27 05:31:11;;;;;;;3.33;1.30;;;5.60;99.90;;;;;;5001859;28;20217;-81
2020/12/27 05:33:42;;;;;;;1.58;1.48;;;5.60;99.90;;;;;;4990709;28;20194;-83
2020/12/27 05:36:16;;;;;;;1.40;1.20;;;5.60;99.90;;;;;;4997397;28;20205;-83
2020/12/27 05:38:45;;;;;;;4.63;2.33;;;5.70;99.90;;;;;;4994216;28;20210;-80
2020/12/27 05:41:15;;;;;;;1.67;1.58;;;5.70;99.90;;;;;;4992329;28;20245;-80
2020/12/27 05:43:41;;;;;;;1.48;1.38;;;5.70;99.90;;;;;;4999620;28;20187;-80
2020/12/27 05:46:08;;;;;;;2.45;1.10;;;5.70;99.90;;;;;;5000087;28;20237;-81
2020/12/27 05:48:35;;;;;;;1.30;1.00;;;5.80;99.90;;;;;;5018859;28;20245;-80
2020/12/27 05:51:05;;;;;;;1.10;1.00;;;5.80;99.90;;;;;;5008276;28;20216;-81
2020/12/27 05:53:32;;;;;;;2.10;1.20;;;5.80;99.90;;;;;;4991657;28;20202;-82
2020/12/27 05:56:01;;;;;;;1.23;1.13;;;5.80;99.90;;;;;;4999155;28;20183;-79
2020/12/27 05:58:27;;;;;;;2.00;1.40;;;5.80;99.90;;;;;;5000527;28;20190;-82
2020/12/27 06:00:56;;;;;;;1.67;1.23;;;5.90;99.90;;;;;;5003277;28;20233;-82
2020/12/27 06:06:29;;;;;;;2.17;1.33;;;6.00;99.90;;;;;;4985148;28;20222;-82
2020/12/27 06:09:11;;;;;;;1.40;1.30;;;6.00;99.90;;;;;;4991790;28;20224;-82
2020/12/27 06:11:48;;;;;;;1.13;1.02;;;6.00;99.90;;;;;;4975569;28;20276;-82
2020/12/27 06:14:41;;;;;;;1.88;1.73;;;6.00;99.90;;;;;;4988947;28;20257;-83
2020/12/27 06:17:13;;;;;;;2.30;1.30;;;5.90;99.90;;;;;;4994527;28;20206;-81
2020/12/27 06:19:54;;;;;;;2.05;1.95;;;5.90;99.90;;;;;;4987955;28;20210;-81
2020/12/27 06:22:28;;;;;;;1.15;0.93;;;6.00;99.90;;;;;;4992235;28;20227;-81
2020/12/27 06:24:58;;;;;;;1.17;1.05;;;6.00;99.90;;;;;;4995790;28;20257;-80
2020/12/27 06:27:27;;;;;;;2.65;1.27;;;6.00;99.90;;;;;;4981417;28;20627;-80
2020/12/27 06:29:59;;;;;;;1.27;0.80;;;6.00;99.90;;;;;;4989383;28;20206;-81
2020/12/27 06:32:30;;;;;;;2.53;1.25;;;6.00;99.90;;;;;;4989674;28;20601;-82
2020/12/27 06:34:57;;;;;;;1.60;1.23;;;6.10;99.90;;;;;;4984188;28;20196;-81
2020/12/27 06:37:24;;;;;;;2.75;1.40;;;6.10;99.90;;;;;;4978709;28;20291;-81
2020/12/27 06:39:52;;;;;;;1.23;1.10;;;6.20;99.90;;;;;;4991165;28;20225;-80
2020/12/27 06:42:22;;;;;;;1.63;1.10;;;6.10;99.90;;;;;;4992275;28;20335;-81
2020/12/27 06:44:50;;;;;;;1.40;1.30;;;6.10;99.90;;;;;;4987474;28;20230;-79
2020/12/27 06:47:18;;;;;;;1.88;1.40;;;6.00;99.90;;;;;;4985482;28;20230;-82
2020/12/27 06:49:45;;;;;;;2.13;1.67;;;6.10;99.90;;;;;;4977780;28;20231;-81
2020/12/27 06:52:20;;;;;;;1.52;1.25;;;6.10;99.90;;;;;;4986851;28;20237;-81
2020/12/27 06:54:49;;;;;;;2.25;1.45;;;6.10;99.90;;;;;;4984120;28;20202;-81
2020/12/27 06:57:45;;;;;;;1.45;1.02;;;6.00;99.90;;;;;;4989322;28;20217;-80
2020/12/27 07:00:24;;;;;;;1.85;1.20;;;6.00;99.90;;;;;;4987394;28;20182;-80
2020/12/27 07:03:06;;;;;;;2.63;1.38;;;6.00;99.90;;;;;;4984516;28;20234;-80
2020/12/27 07:05:34;;;;;;;2.22;1.30;;;6.00;99.90;;;;;;4974129;28;20196;-81
2020/12/27 07:08:03;;;;;;;1.40;1.30;;;5.90;99.90;;;;;;4970973;28;20199;-81
2020/12/27 07:10:35;;;;;;;2.15;1.65;;;5.90;99.90;;;;;;4983012;28;20201;-81
2020/12/27 07:13:05;;;;;;;0.98;0.88;;;5.80;99.90;;;;;;4991116;28;20264;-81
2020/12/27 07:15:33;;;;;;;1.60;1.50;;;5.80;99.90;;;;;;4989396;28;20217;-81
2020/12/27 07:18:09;;;;;;;1.40;1.30;;;5.70;99.90;;;;;;4978693;28;20215;-79
2020/12/27 07:20:39;;;;;;;2.80;1.23;;;5.60;99.90;;;;;;4975909;28;20667;-80
2020/12/27 07:23:18;;;;;;;3.47;1.50;;;5.60;99.90;;;;;;4992169;28;20206;-81
2020/12/27 07:25:47;;;;;;;2.55;1.27;;;5.60;99.90;;;;;;4981585;28;20214;-82
2020/12/27 07:28:15;;;;;;;1.75;0.90;;;5.70;99.90;;;;;;4989613;28;20241;-80
2020/12/27 07:30:46;;;;;;;1.30;1.20;;;5.70;99.90;;;;;;5007550;28;20717;-81
2020/12/27 07:33:14;;;;;;;1.98;1.15;;;5.80;99.90;;;;;;4987606;28;20206;-81
2020/12/27 07:35:41;;;;;;;1.60;1.20;;;5.80;99.90;;;;;;4987028;28;20265;-81
2020/12/27 07:38:09;;;;;;;5.65;1.20;;;5.90;99.90;;;;;;4987120;28;20202;-80
2020/12/27 07:40:37;;;;;;;1.40;1.30;;;5.90;99.90;;;;;;4995850;28;20215;-83
2020/12/27 07:43:10;;;;;;;1.10;1.00;;;5.90;99.90;;;;;;4985232;28;20258;-82
2020/12/27 07:45:38;;;;;;;1.40;1.30;;;5.90;99.90;;;;;;4995084;28;20204;-82
2020/12/27 07:48:04;;;;;;;1.75;1.27;;;5.90;99.90;;;;;;4994459;28;20206;-82
2020/12/27 07:50:32;;;;;;;1.50;1.40;;;5.90;99.90;;;;;;4991884;28;20202;-81
2020/12/27 07:53:00;;;;;;;2.30;1.55;;;5.80;99.90;;;;;;4986426;28;20195;-82
2020/12/27 07:55:31;;;;;;;3.35;1.80;;;5.90;99.90;;;;;;4987844;28;20197;-82
2020/12/27 07:58:00;;;;;;;1.10;1.00;;;5.90;99.90;;;;;;4992337;28;20206;-82
2020/12/27 08:00:30;;;;;;;1.48;1.20;;;5.90;99.90;;;;;;4984474;28;20245;-81
2020/12/27 08:02:58;;;;;;;1.38;1.27;;;5.90;99.90;;;;;;4980099;28;20199;-81
2020/12/27 08:05:25;;;;;;;1.30;1.17;;;6.00;99.90;;;;;;4992581;28;20203;-80
2020/12/27 08:07:55;;;;;;;1.58;1.48;;;6.00;99.90;;;;;;4984755;28;20587;-83
2020/12/27 08:10:25;;;;;;;2.00;1.10;;;6.10;99.90;;;;;;4990142;28;20238;-80
2020/12/27 08:12:54;;;;;;;1.55;1.20;;;6.00;99.90;;;;;;4986543;28;20270;-79
2020/12/27 08:15:22;;;;;;;1.33;1.20;;;6.10;99.90;;;;;;4996002;28;20199;-81
2020/12/27 08:18:10;;;;;;;1.30;1.20;;;6.20;99.90;;;;;;4989301;28;20203;-82
2020/12/27 08:20:46;;;;;;;2.15;2.03;;;6.20;99.90;;;;;;4986762;28;20211;-82
2020/12/27 08:23:13;;;;;;;2.47;1.20;;;6.20;99.90;;;;;;4979804;28;20203;-82
2020/12/27 08:25:43;;;;;;;1.27;1.17;;;6.30;99.90;;;;;;4994862;28;20330;-82
2020/12/27 08:28:15;;;;;;;1.13;1.00;;;6.30;99.90;;;;;;4999348;28;20191;-82
2020/12/27 08:30:45;;;;;;;1.20;0.82;;;6.30;99.90;;;;;;4986185;28;20290;-84
2020/12/27 08:33:18;;;;;;;1.25;1.02;;;6.40;99.90;;;;;;4992442;28;20257;-84
2020/12/27 08:35:47;;;;;;;1.30;1.10;;;6.40;99.90;;;;;;4991341;28;20227;-83
2020/12/27 08:41:20;;;;;;;1.70;1.50;;;6.50;99.90;;;;;;4998793;28;20195;-85
2020/12/27 08:44:17;;;;;;;1.15;0.98;;;6.40;99.90;;;;;;4996999;23;20234;-74
2020/12/27 08:46:47;;;;;;;2.85;1.20;;;6.40;99.90;;;;;;4978542;28;20231;-75
2020/12/27 08:49:24;;;;;;;1.23;1.08;;;6.50;99.90;;;;;;4978763;28;20206;-73
2020/12/27 08:51:58;;;;;;;1.02;0.93;;;6.50;99.90;;;;;;4978772;28;20289;-74
2020/12/27 08:54:26;;;;;;;1.55;1.23;;;6.50;99.90;;;;;;4974957;28;20208;-74
2020/12/27 08:56:53;;;;;;;1.20;1.00;;;6.50;99.90;;;;;;4980266;28;20208;-73
2020/12/27 08:59:20;;;;;;;1.58;1.17;;;6.60;99.90;;;;;;4978770;28;20207;-72
2020/12/27 09:01:53;;;;;;;1.27;1.02;;;6.60;99.90;;;;;;4983211;28;20214;-73
2020/12/27 09:04:21;;;;;;;1.95;1.50;;;6.60;99.90;;;;;;4978916;28;20203;-73
2020/12/27 09:07:04;;;;;;;2.40;1.20;;;6.60;99.90;;;;;;4981250;28;20219;-74
2020/12/27 09:09:32;;;;;;;1.00;0.70;;;6.70;99.90;;;;;;4976074;28;20200;-75
2020/12/27 09:11:59;;;;;;;1.27;1.10;;;6.70;99.90;;;;;;4976810;28;20216;-74
2020/12/27 09:14:31;;;;;;;1.33;1.00;;;6.70;99.90;;;;;;4978089;28;20259;-74
2020/12/27 09:17:01;;;;;;;1.55;1.10;;;6.70;99.90;;;;;;4974542;28;20238;-73
2020/12/27 09:19:33;;;;;;;7.00;1.20;;;6.70;99.90;;;;;;4976095;28;20203;-74
2020/12/27 09:22:05;;;;;;;1.23;1.08;;;6.70;99.90;;;;;;4977820;28;20235;-74
2020/12/27 09:24:31;;;;;;;1.65;1.30;;;6.70;99.90;;;;;;4975533;28;20201;-74
2020/12/27 09:27:09;;;;;;;1.17;1.08;;;6.70;99.90;;;;;;4975416;28;20221;-74
2020/12/27 09:29:36;;;;;;;2.55;1.23;;;6.70;99.90;;;;;;4976234;28;20203;-71
2020/12/27 09:32:10;;;;;;;1.95;0.80;;;6.80;99.90;;;;;;4981319;28;20239;-71
2020/12/27 09:34:38;;;;;;;1.20;0.90;;;6.80;99.90;;;;;;4979942;28;20268;-71
2020/12/27 09:37:15;;;;;;;1.20;1.00;;;6.80;99.90;;;;;;4973357;28;20211;-72
2020/12/27 09:39:42;;;;;;;1.00;0.90;;;6.80;99.90;;;;;;4978977;28;20208;-73
2020/12/27 09:42:21;;;;;;;2.58;1.13;;;6.80;99.90;;;;;;4997312;23;20277;-74
2020/12/27 09:44:48;;;;;;;1.63;0.90;;;6.80;99.90;;;;;;4967425;28;20208;-75
2020/12/27 09:47:24;;;;;;;1.48;0.85;;;6.80;99.90;;;;;;4972939;28;20246;-71
2020/12/27 09:50:04;;;;;;;1.10;0.85;;;6.80;99.90;;;;;;4969471;28;20215;-73
2020/12/27 09:52:43;;;;;;;1.70;1.40;;;6.80;99.90;;;;;;4972397;28;20587;-76
2020/12/27 09:55:09;;;;;;;1.20;1.08;;;6.90;99.90;;;;;;4975300;28;20266;-77
2020/12/27 09:57:40;;;;;;;3.80;1.10;;;6.90;99.90;;;;;;4989978;28;20207;-76
2020/12/27 10:00:08;;;;;;;1.60;1.40;;;6.90;99.90;;;;;;4975606;28;20677;-76
2020/12/27 10:02:36;;;;;;;1.95;1.10;;;7.00;99.90;;;;;;4984052;28;20235;-76
2020/12/27 10:05:03;;;;;;;1.13;1.02;;;7.00;99.90;;;;;;4975550;28;20284;-76
2020/12/27 10:07:30;;;;;;;3.78;0.90;;;7.00;99.90;;;;;;4979701;28;20217;-76
2020/12/27 10:09:57;;;;;;;3.13;1.58;;;7.00;99.90;;;;;;4971750;28;20212;-76
2020/12/27 10:12:24;;;;;;;1.52;1.00;;;7.00;99.90;;;;;;4983364;28;20243;-76
2020/12/27 10:14:51;;;;;;;1.80;0.95;;;7.00;99.90;;;;;;4968963;28;20230;-76
2020/12/27 10:17:18;;;;;;;1.25;1.00;;;7.00;99.90;;;;;;4977142;28;20572;-77
2020/12/27 10:19:44;;;;;;;2.10;1.75;;;7.00;99.90;;;;;;4980665;28;20655;-76
2020/12/27 10:22:12;;;;;;;1.67;1.15;;;7.00;99.90;;;;;;4977875;28;20226;-75
2020/12/27 10:24:40;;;;;;;2.38;2.17;;;7.00;99.90;;;;;;4974297;28;20208;-76
2020/12/27 10:27:07;;;;;;;2.47;2.25;;;6.80;99.90;;;;;;4973122;28;20228;-75
2020/12/27 10:30:12;;;;;;;3.22;2.65;;;6.70;99.90;;;;;;5096419;27;20554;-74
2020/12/27 10:32:39;;;;;;;2.65;2.45;;;6.50;99.90;;;;;;5100108;28;20708;-73
2020/12/27 10:35:05;;;;;;;2.10;1.90;;;6.20;99.90;;;;;;5104677;28;20198;-75
2020/12/27 10:37:32;;;;;;;2.95;2.33;;;6.20;99.90;;;;;;5090440;28;20232;-74
2020/12/27 10:39:59;;;;;;;3.03;2.10;;;6.10;99.90;;;;;;5090146;28;20201;-77
2020/12/27 10:42:25;;;;;;;4.88;2.72;;;6.10;99.90;;;;;;5090969;28;20230;-75
2020/12/27 10:44:53;;;;;;;2.70;2.50;;;6.00;99.90;;;;;;5098659;28;20213;-72
2020/12/27 10:47:20;;;;;;;2.80;2.17;;;6.00;99.90;;;;;;5100178;28;20602;-73
2020/12/27 10:49:47;;;;;;;2.75;2.55;;;5.90;99.90;;;;;;5098008;28;20226;-74
2020/12/27 10:52:17;;;;;;;3.08;2.88;;;5.90;99.90;;;;;;5107568;22;20745;-80
2020/12/27 10:54:44;;;;;;;2.60;2.40;;;5.80;99.90;;;;;;5069753;28;20183;-82
2020/12/27 10:57:10;;;;;;;2.70;2.05;;;5.70;99.90;;;;;;5067023;28;20195;-82
2020/12/27 10:59:37;;;;;;;2.72;2.50;;;5.80;99.90;;;;;;5079863;28;20195;-81
2020/12/27 11:02:05;;;;;;;3.85;3.13;;;5.70;99.90;;;;;;5074127;28;20220;-82
2020/12/27 11:07:25;;;;;;;4.45;2.70;;;5.60;99.90;;;;;;5068733;28;20206;-82
2020/12/27 11:09:52;;;;;;;3.10;2.40;;;5.70;99.90;;;;;;5066100;28;20220;-80
2020/12/27 11:12:26;;;;;;;2.50;2.20;;;5.70;99.90;;;;;;5074063;28;20207;-83
2020/12/27 11:14:52;;;;;;;4.10;2.95;;;5.70;99.90;;;;;;5065144;28;20253;-81
2020/12/27 11:17:19;;;;;;;2.92;2.60;;;5.70;99.90;;;;;;5064472;28;20200;-79
2020/12/27 11:19:47;;;;;;;3.35;2.10;;;5.70;99.90;;;;;;5067376;28;20200;-79
2020/12/27 11:22:21;;;;;;;2.78;2.42;;;5.70;99.90;;;;;;5074841;28;20235;-81
2020/12/27 11:24:47;;;;;;;2.75;2.38;;;5.70;99.90;;;;;;5070668;28;20207;-80
2020/12/27 11:27:15;;;;;;;2.15;1.95;;;5.70;99.90;;;;;;5072403;28;20211;-81
2020/12/27 11:29:41;;;;;;;2.40;2.20;;;5.60;99.90;;;;;;5086913;28;20227;-81
2020/12/27 11:32:08;;;;;;;3.40;3.10;;;5.60;99.90;;;;;;5084779;28;20237;-82
2020/12/27 11:34:35;;;;;;;3.40;2.65;;;5.60;99.90;;;;;;5084259;28;20279;-80
2020/12/27 11:37:02;;;;;;;2.38;2.17;;;5.60;99.90;;;;;;5070242;28;20203;-80
2020/12/27 11:39:29;;;;;;;4.65;2.85;;;5.70;99.90;;;;;;5065125;28;20207;-83
2020/12/27 11:42:01;;;;;;;3.58;3.10;;;5.60;99.90;;;;;;5051992;28;20243;-82
2020/12/27 11:44:32;;;;;;;4.53;3.10;;;5.50;99.90;;;;;;5056864;28;20207;-82
2020/12/27 11:47:02;;;;;;;3.75;3.03;;;5.50;99.90;;;;;;5060260;28;20242;-84
2020/12/27 11:49:29;;;;;;;2.63;2.42;;;5.50;99.90;;;;;;5046926;28;20248;-81
2020/12/27 11:51:55;;;;;;;2.83;2.58;;;5.50;99.90;;;;;;5063729;28;20296;-82
2020/12/27 11:54:23;;;;;;;4.25;2.85;;;5.40;99.90;;;;;;5064004;28;20290;-80
2020/12/27 11:56:50;;;;;;;2.95;2.47;;;5.20;99.90;;;;;;5062610;28;20226;-84
2020/12/27 11:59:17;;;;;;;3.50;3.20;;;5.30;99.90;;;;;;5072558;28;20184;-83
2020/12/27 12:01:46;;;;;;;4.82;4.25;;;5.20;99.90;;;;;;5069306;28;20227;-84
2020/12/27 12:04:13;;;;;;;3.38;3.00;;;5.20;99.90;;;;;;5052107;28;20206;-84
2020/12/27 12:06:40;;;;;;;3.83;3.35;;;5.20;99.90;;;;;;5064652;28;20207;-82
2020/12/27 12:09:07;;;;;;;3.97;3.05;;;5.30;99.90;;;;;;5063979;28;20224;-82
2020/12/27 12:11:35;;;;;;;2.85;2.60;;;5.30;99.90;;;;;;5053948;28;20236;-82
2020/12/27 12:14:04;;;;;;;3.92;3.53;;;5.20;99.90;;;;;;5064565;28;20228;-84
2020/12/27 12:16:31;;;;;;;5.25;3.25;;;5.20;99.90;;;;;;5053942;28;20200;-82
2020/12/27 12:18:58;;;;;;;3.63;2.80;;;5.30;99.90;;;;;;5038729;28;20215;-67
2020/12/27 12:21:25;;;;;;;3.65;3.10;;;5.30;99.90;;;;;;5039206;28;20222;-68
2020/12/27 12:23:52;;;;;;;3.92;3.53;;;5.30;99.90;;;;;;5049776;28;20201;-68
2020/12/27 12:26:20;;;;;;;4.53;4.03;;;5.30;99.90;;;;;;5040810;28;20301;-67
2020/12/27 12:28:47;;;;;;;3.42;3.03;;;5.20;99.90;;;;;;5052299;22;20232;-73
2020/12/27 12:31:15;;;;;;;5.50;3.20;;;5.20;99.90;;;;;;5044243;28;20258;-85
2020/12/27 12:33:42;;;;;;;5.28;3.22;;;5.20;99.90;;;;;;5048196;28;20250;-84
2020/12/27 12:36:12;;;;;;;4.18;2.30;;;5.10;99.90;;;;;;5049757;28;20200;-85
2020/12/27 12:38:39;;;;;;;3.17;2.88;;;5.10;99.90;;;;;;5047842;28;20311;-84
2020/12/27 12:41:10;;;;;;;3.45;3.00;;;5.10;99.90;;;;;;5041400;28;20196;-84
2020/12/27 12:43:37;;;;;;;2.85;2.65;;;5.10;99.90;;;;;;5038495;28;20226;-84
2020/12/27 12:46:05;;;;;;;3.33;2.90;;;5.10;99.90;;;;;;5063621;28;20223;-86
2020/12/27 12:48:32;;;;;;;3.00;2.63;;;5.10;99.90;;;;;;5056130;28;20761;-83
2020/12/27 12:50:59;;;;;;;2.90;2.60;;;5.10;99.90;;;;;;5058111;28;20204;-84
2020/12/27 12:53:26;;;;;;;3.13;2.47;;;5.00;99.90;;;;;;5051023;28;20199;-82
2020/12/27 12:55:53;;;;;;;2.88;2.50;;;5.10;99.90;;;;;;5057980;28;20204;-84
2020/12/27 12:58:19;;;;;;;2.53;2.30;;;5.00;99.90;;;;;;5043664;28;20231;-83
2020/12/27 13:00:46;;;;;;;3.20;2.88;;;5.00;99.90;;;;;;5057640;28;20203;-83
2020/12/27 13:03:13;;;;;;;3.58;2.20;;;5.00;99.90;;;;;;5046721;28;20200;-81
2020/12/27 13:05:40;;;;;;;2.63;2.05;;;5.00;99.90;;;;;;5047639;28;20252;-82
2020/12/27 13:08:07;;;;;;;3.15;2.35;;;5.00;99.90;;;;;;5057117;28;20208;-83
2020/12/27 13:10:34;;;;;;;2.30;2.10;;;5.00;99.90;;;;;;5054738;28;20224;-81
2020/12/27 13:13:01;;;;;;;2.75;1.80;;;5.10;99.90;;;;;;5054611;28;20215;-82
2020/12/27 13:15:28;;;;;;;2.08;1.88;;;5.00;99.90;;;;;;5042746;28;20209;-83